sensor_id;sensor_type;location;lat;lon;timestamp;pressure;altitude;pressure_sealevel;temperature;humidity
12949;BME280;6539;49.476;8.484;2023-04-07T00:00:19;100547.34;;;11.15;69.31
12949;BME280;6539;49.476;8.484;2023-04-07T00:02:47;100545.03;;;11.10;69.04
12949;BME280;6539;49.476;8.484;2023-04-07T00:05:14;100547.34;;;11.11;68.64
12949;BME280;6539;49.476;8.484;2023-04-07T00:07:40;100543.38;;;11.16;69.31
12949;BME280;6539;49.476;8.484;2023-04-07T00:10:06;100537.91;;;11.16;68.79
12949;BME280;6539;49.476;8.484;2023-04-07T00:12:33;100541.75;;;11.22;69.23
12949;BME280;6539;49.476;8.484;2023-04-07T00:14:59;100531.28;;;11.10;68.77
12949;BME280;6539;49.476;8.484;2023-04-07T00:17:25;100533.66;;;11.08;68.61
12949;BME280;6539;49.476;8.484;2023-04-07T00:19:50;100539.94;;;11.05;68.67
12949;BME280;6539;49.476;8.484;2023-04-07T00:22:18;100536.34;;;11.15;68.77
12949;BME280;6539;49.476;8.484;2023-04-07T00:24:47;100533.97;;;11.17;68.94
12949;BME280;6539;49.476;8.484;2023-04-07T00:27:17;100528.09;;;11.15;68.71
12949;BME280;6539;49.476;8.484;2023-04-07T00:29:45;100525.41;;;11.04;69.27
12949;BME280;6539;49.476;8.484;2023-04-07T00:32:12;100519.13;;;11.07;68.96
12949;BME280;6539;49.476;8.484;2023-04-07T00:34:38;100517.53;;;11.10;69.16
12949;BME280;6539;49.476;8.484;2023-04-07T00:37:03;100514.44;;;11.08;69.35
12949;BME280;6539;49.476;8.484;2023-04-07T00:39:32;100503.06;;;11.06;69.39
12949;BME280;6539;49.476;8.484;2023-04-07T00:42:00;100496.78;;;11.05;69.88
12949;BME280;6539;49.476;8.484;2023-04-07T00:44:27;100494.41;;;11.07;69.75
12949;BME280;6539;49.476;8.484;2023-04-07T00:46:56;100486.59;;;11.02;69.17
12949;BME280;6539;49.476;8.484;2023-04-07T00:49:26;100495.63;;;11.03;69.44
12949;BME280;6539;49.476;8.484;2023-04-07T00:52:00;100490.09;;;11.06;69.56
12949;BME280;6539;49.476;8.484;2023-04-07T00:54:29;100485.84;;;11.02;69.44
12949;BME280;6539;49.476;8.484;2023-04-07T00:56:55;100481.09;;;11.02;69.19
12949;BME280;6539;49.476;8.484;2023-04-07T00:59:22;100476.44;;;10.99;69.83
12949;BME280;6539;49.476;8.484;2023-04-07T01:02:09;100475.66;;;10.99;69.44
12949;BME280;6539;49.476;8.484;2023-04-07T01:04:57;100470.09;;;11.06;69.86
12949;BME280;6539;49.476;8.484;2023-04-07T01:07:33;100471.59;;;11.14;69.20
12949;BME280;6539;49.476;8.484;2023-04-07T01:10:04;100468.47;;;11.12;68.74
12949;BME280;6539;49.476;8.484;2023-04-07T01:12:43;100470.09;;;11.06;69.18
12949;BME280;6539;49.476;8.484;2023-04-07T01:15:12;100469.25;;;11.09;69.12
12949;BME280;6539;49.476;8.484;2023-04-07T01:17:44;100466.94;;;11.07;69.11
12949;BME280;6539;49.476;8.484;2023-04-07T01:20:18;100461.75;;;11.13;69.34
12949;BME280;6539;49.476;8.484;2023-04-07T01:22:51;100462.19;;;11.11;69.25
12949;BME280;6539;49.476;8.484;2023-04-07T01:29:10;100452.78;;;11.09;68.95
12949;BME280;6539;49.476;8.484;2023-04-07T01:31:40;100447.66;;;11.11;69.22
12949;BME280;6539;49.476;8.484;2023-04-07T01:34:11;100447.28;;;11.09;69.36
12949;BME280;6539;49.476;8.484;2023-04-07T01:36:38;100443.31;;;11.13;69.15
12949;BME280;6539;49.476;8.484;2023-04-07T01:39:06;100442.53;;;11.13;68.79
12949;BME280;6539;49.476;8.484;2023-04-07T01:41:32;100434.59;;;11.22;68.65
12949;BME280;6539;49.476;8.484;2023-04-07T01:44:00;100434.56;;;11.25;67.53
12949;BME280;6539;49.476;8.484;2023-04-07T01:46:28;100443.06;;;11.01;68.30
12949;BME280;6539;49.476;8.484;2023-04-07T01:48:57;100436.03;;;10.96;69.33
12949;BME280;6539;49.476;8.484;2023-04-07T01:51:25;100432.59;;;10.89;69.23
12949;BME280;6539;49.476;8.484;2023-04-07T01:53:56;100440.78;;;10.92;69.42
12949;BME280;6539;49.476;8.484;2023-04-07T01:56:22;100443.84;;;10.98;69.52
12949;BME280;6539;49.476;8.484;2023-04-07T01:58:48;100440.25;;;11.04;69.05
12949;BME280;6539;49.476;8.484;2023-04-07T02:01:14;100435.13;;;11.10;68.74
12949;BME280;6539;49.476;8.484;2023-04-07T02:03:48;100434.28;;;11.13;68.50
12949;BME280;6539;49.476;8.484;2023-04-07T02:06:22;100428.38;;;11.18;68.47
12949;BME280;6539;49.476;8.484;2023-04-07T02:08:56;100422.44;;;11.23;68.15
12949;BME280;6539;49.476;8.484;2023-04-07T02:11:25;100422.94;;;11.11;67.83
12949;BME280;6539;49.476;8.484;2023-04-07T02:13:56;100420.19;;;11.11;68.00
12949;BME280;6539;49.476;8.484;2023-04-07T02:16:26;100417.44;;;11.11;68.22
12949;BME280;6539;49.476;8.484;2023-04-07T02:18:53;100419.38;;;11.14;67.96
12949;BME280;6539;49.476;8.484;2023-04-07T02:21:19;100420.59;;;11.09;68.15
12949;BME280;6539;49.476;8.484;2023-04-07T02:23:46;100414.69;;;11.11;68.14
12949;BME280;6539;49.476;8.484;2023-04-07T02:26:11;100420.19;;;11.11;67.78
12949;BME280;6539;49.476;8.484;2023-04-07T02:28:40;100419.13;;;10.98;68.54
12949;BME280;6539;49.476;8.484;2023-04-07T02:31:11;100425.47;;;10.95;68.79
12949;BME280;6539;49.476;8.484;2023-04-07T02:33:38;100419.97;;;10.91;69.31
12949;BME280;6539;49.476;8.484;2023-04-07T02:36:04;100417.31;;;10.84;69.47
12949;BME280;6539;49.476;8.484;2023-04-07T02:38:31;100418.47;;;10.87;69.50
12949;BME280;6539;49.476;8.484;2023-04-07T02:41:01;100419.97;;;10.95;69.27
12949;BME280;6539;49.476;8.484;2023-04-07T02:43:33;100405.81;;;11.00;68.66
12949;BME280;6539;49.476;8.484;2023-04-07T02:45:58;100420.81;;;10.88;69.26
12949;BME280;6539;49.476;8.484;2023-04-07T02:48:24;100417.69;;;10.86;69.06
12949;BME280;6539;49.476;8.484;2023-04-07T02:50:51;100404.28;;;10.92;69.19
12949;BME280;6539;49.476;8.484;2023-04-07T02:53:17;100412.16;;;10.93;69.09
12949;BME280;6539;49.476;8.484;2023-04-07T02:55:48;100404.97;;;11.03;68.70
12949;BME280;6539;49.476;8.484;2023-04-07T02:58:13;100392.44;;;10.98;68.63
12949;BME280;6539;49.476;8.484;2023-04-07T03:00:39;100407.34;;;11.01;67.97
12949;BME280;6539;49.476;8.484;2023-04-07T03:03:05;100396.41;;;10.97;68.10
12949;BME280;6539;49.476;8.484;2023-04-07T03:05:33;100409.09;;;10.81;68.56
12949;BME280;6539;49.476;8.484;2023-04-07T03:07:59;100393.50;;;10.70;68.63
12949;BME280;6539;49.476;8.484;2023-04-07T03:10:30;100389.59;;;10.71;68.74
12949;BME280;6539;49.476;8.484;2023-04-07T03:12:56;100398.94;;;10.78;67.85
12949;BME280;6539;49.476;8.484;2023-04-07T03:15:24;100390.34;;;10.72;67.77
12949;BME280;6539;49.476;8.484;2023-04-07T03:17:50;100395.81;;;10.76;68.18
12949;BME280;6539;49.476;8.484;2023-04-07T03:20:16;100400.91;;;10.77;68.57
12949;BME280;6539;49.476;8.484;2023-04-07T03:22:51;100398.19;;;10.73;68.23
12949;BME280;6539;49.476;8.484;2023-04-07T03:25:19;100381.72;;;10.73;68.35
12949;BME280;6539;49.476;8.484;2023-04-07T03:27:46;100369.13;;;10.76;68.33
12949;BME280;6539;49.476;8.484;2023-04-07T03:30:15;100373.81;;;10.79;68.66
12949;BME280;6539;49.476;8.484;2023-04-07T03:32:43;100380.09;;;10.76;68.61
12949;BME280;6539;49.476;8.484;2023-04-07T03:35:13;100375.78;;;10.79;69.15
12949;BME280;6539;49.476;8.484;2023-04-07T03:37:39;100381.69;;;10.77;68.79
12949;BME280;6539;49.476;8.484;2023-04-07T03:40:08;100373.88;;;10.76;68.60
12949;BME280;6539;49.476;8.484;2023-04-07T03:42:34;100377.28;;;10.87;68.96
12949;BME280;6539;49.476;8.484;2023-04-07T03:44:59;100373.38;;;10.84;68.88
12949;BME280;6539;49.476;8.484;2023-04-07T03:47:25;100379.31;;;10.79;69.05
12949;BME280;6539;49.476;8.484;2023-04-07T03:49:53;100372.22;;;10.82;69.35
12949;BME280;6539;49.476;8.484;2023-04-07T03:52:21;100376.97;;;10.78;69.29
12949;BME280;6539;49.476;8.484;2023-04-07T03:54:47;100377.72;;;10.82;69.90
12949;BME280;6539;49.476;8.484;2023-04-07T03:57:15;100382.00;;;10.83;69.16
12949;BME280;6539;49.476;8.484;2023-04-07T03:59:46;100383.63;;;10.80;69.17
12949;BME280;6539;49.476;8.484;2023-04-07T04:02:16;100378.56;;;10.75;69.99
12949;BME280;6539;49.476;8.484;2023-04-07T04:04:42;100381.72;;;10.73;69.56
12949;BME280;6539;49.476;8.484;2023-04-07T04:07:07;100386.50;;;10.66;70.56
12949;BME280;6539;49.476;8.484;2023-04-07T04:09:33;100394.28;;;10.71;70.22
12949;BME280;6539;49.476;8.484;2023-04-07T04:12:01;100386.81;;;10.75;69.85
12949;BME280;6539;49.476;8.484;2023-04-07T04:14:30;100396.19;;;10.78;69.73
12949;BME280;6539;49.476;8.484;2023-04-07T04:16:58;100394.19;;;10.82;69.57
12949;BME280;6539;49.476;8.484;2023-04-07T04:19:23;100397.41;;;10.73;70.20
12949;BME280;6539;49.476;8.484;2023-04-07T04:21:51;100391.44;;;10.82;69.57
12949;BME280;6539;49.476;8.484;2023-04-07T04:24:19;100391.03;;;10.87;69.33
12949;BME280;6539;49.476;8.484;2023-04-07T04:26:50;100389.06;;;10.84;69.01
12949;BME280;6539;49.476;8.484;2023-04-07T04:29:15;100391.81;;;10.84;68.96
12949;BME280;6539;49.476;8.484;2023-04-07T04:31:41;100393.56;;;10.67;69.32
12949;BME280;6539;49.476;8.484;2023-04-07T04:34:07;100394.28;;;10.71;69.18
12949;BME280;6539;49.476;8.484;2023-04-07T04:36:38;100399.91;;;10.57;69.56
12949;BME280;6539;49.476;8.484;2023-04-07T04:39:06;100396.84;;;10.48;69.82
12949;BME280;6539;49.476;8.484;2023-04-07T04:41:36;100401.56;;;10.47;69.78
12949;BME280;6539;49.476;8.484;2023-04-07T04:44:07;100406.22;;;10.50;70.15
12949;BME280;6539;49.476;8.484;2023-04-07T04:46:37;100403.81;;;10.59;69.69
12949;BME280;6539;49.476;8.484;2023-04-07T04:49:05;100401.38;;;10.68;69.42
12949;BME280;6539;49.476;8.484;2023-04-07T04:51:34;100400.69;;;10.57;69.61
12949;BME280;6539;49.476;8.484;2023-04-07T04:54:02;100394.38;;;10.60;69.60
12949;BME280;6539;49.476;8.484;2023-04-07T04:56:30;100395.94;;;10.61;69.96
12949;BME280;6539;49.476;8.484;2023-04-07T04:58:58;100401.03;;;10.63;69.51
12949;BME280;6539;49.476;8.484;2023-04-07T05:01:26;100402.22;;;10.62;69.15
12949;BME280;6539;49.476;8.484;2023-04-07T05:03:57;100401.44;;;10.61;69.29
12949;BME280;6539;49.476;8.484;2023-04-07T05:06:22;100404.63;;;10.53;69.67
12949;BME280;6539;49.476;8.484;2023-04-07T05:08:51;100406.22;;;10.54;69.58
12949;BME280;6539;49.476;8.484;2023-04-07T05:11:16;100403.19;;;10.38;70.61
12949;BME280;6539;49.476;8.484;2023-04-07T05:13:42;100398.44;;;10.45;70.45
12949;BME280;6539;49.476;8.484;2023-04-07T05:16:10;100390.94;;;10.49;70.19
12949;BME280;6539;49.476;8.484;2023-04-07T05:18:38;100390.94;;;10.49;69.98
12949;BME280;6539;49.476;8.484;2023-04-07T05:21:04;100390.13;;;10.52;70.13
12949;BME280;6539;49.476;8.484;2023-04-07T05:23:32;100390.03;;;10.66;69.46
12949;BME280;6539;49.476;8.484;2023-04-07T05:25:57;100392.38;;;10.64;69.57
12949;BME280;6539;49.476;8.484;2023-04-07T05:28:23;100390.81;;;10.63;69.10
12949;BME280;6539;49.476;8.484;2023-04-07T05:30:50;100387.28;;;10.66;69.04
12949;BME280;6539;49.476;8.484;2023-04-07T05:33:15;100385.06;;;10.51;69.59
12949;BME280;6539;49.476;8.484;2023-04-07T05:35:45;100385.41;;;10.56;69.85
12949;BME280;6539;49.476;8.484;2023-04-07T05:38:12;100390.03;;;10.66;69.31
12949;BME280;6539;49.476;8.484;2023-04-07T05:40:40;100385.47;;;10.49;70.04
12949;BME280;6539;49.476;8.484;2023-04-07T05:43:11;100385.00;;;10.58;70.08
12949;BME280;6539;49.476;8.484;2023-04-07T05:45:39;100381.81;;;10.63;69.67
12949;BME280;6539;49.476;8.484;2023-04-07T05:48:07;100381.34;;;10.71;69.60
12949;BME280;6539;49.476;8.484;2023-04-07T05:50:35;100384.84;;;10.76;69.35
12949;BME280;6539;49.476;8.484;2023-04-07T05:53:01;100386.84;;;10.71;69.89
12949;BME280;6539;49.476;8.484;2023-04-07T05:55:29;100384.84;;;10.76;70.40
12949;BME280;6539;49.476;8.484;2023-04-07T05:57:56;100378.50;;;10.82;69.44
12949;BME280;6539;49.476;8.484;2023-04-07T06:00:24;100385.16;;;10.81;69.58
12949;BME280;6539;49.476;8.484;2023-04-07T06:02:54;100388.22;;;10.90;69.72
12949;BME280;6539;49.476;8.484;2023-04-07T06:05:20;100396.03;;;10.95;69.57
12949;BME280;6539;49.476;8.484;2023-04-07T06:07:48;100403.44;;;10.98;68.82
12949;BME280;6539;49.476;8.484;2023-04-07T06:10:16;100398.38;;;10.97;68.84
12949;BME280;6539;49.476;8.484;2023-04-07T06:12:47;100401.63;;;10.85;69.40
12949;BME280;6539;49.476;8.484;2023-04-07T06:15:12;100396.41;;;10.94;69.34
12949;BME280;6539;49.476;8.484;2023-04-07T06:17:41;100406.56;;;11.00;68.52
12949;BME280;6539;49.476;8.484;2023-04-07T06:20:11;100408.88;;;11.05;68.22
12949;BME280;6539;49.476;8.484;2023-04-07T06:22:39;100411.19;;;11.07;68.12
12949;BME280;6539;49.476;8.484;2023-04-07T06:25:05;100408.09;;;11.05;68.42
12949;BME280;6539;49.476;8.484;2023-04-07T06:27:31;100402.19;;;11.06;67.96
12949;BME280;6539;49.476;8.484;2023-04-07T06:29:58;100398.78;;;10.95;68.24
12949;BME280;6539;49.476;8.484;2023-04-07T06:32:23;100398.72;;;10.99;68.52
12949;BME280;6539;49.476;8.484;2023-04-07T06:34:50;100410.47;;;11.03;69.07
12949;BME280;6539;49.476;8.484;2023-04-07T06:37:16;100401.84;;;11.01;68.92
12949;BME280;6539;49.476;8.484;2023-04-07T06:39:42;100394.72;;;11.07;68.24
12949;BME280;6539;49.476;8.484;2023-04-07T06:42:08;100397.84;;;11.09;68.16
12949;BME280;6539;49.476;8.484;2023-04-07T06:44:38;100397.81;;;11.12;68.35
12949;BME280;6539;49.476;8.484;2023-04-07T06:47:04;100405.72;;;11.07;68.75
12949;BME280;6539;49.476;8.484;2023-04-07T06:49:32;100399.47;;;11.03;69.30
12949;BME280;6539;49.476;8.484;2023-04-07T06:51:58;100406.50;;;11.07;68.34
12949;BME280;6539;49.476;8.484;2023-04-07T06:54:24;100404.16;;;11.06;68.47
12949;BME280;6539;49.476;8.484;2023-04-07T06:56:55;100402.91;;;11.14;68.52
12949;BME280;6539;49.476;8.484;2023-04-07T06:59:26;100398.44;;;11.27;68.15
12949;BME280;6539;49.476;8.484;2023-04-07T07:01:52;100405.75;;;11.40;68.00
12949;BME280;6539;49.476;8.484;2023-04-07T07:04:22;100403.72;;;11.44;67.04
12949;BME280;6539;49.476;8.484;2023-04-07T07:06:48;100400.84;;;11.55;66.73
12949;BME280;6539;49.476;8.484;2023-04-07T07:09:16;100402.75;;;11.62;66.08
12949;BME280;6539;49.476;8.484;2023-04-07T07:11:42;100402.44;;;11.86;65.57
12949;BME280;6539;49.476;8.484;2023-04-07T07:14:10;100408.19;;;11.99;65.00
12949;BME280;6539;49.476;8.484;2023-04-07T07:16:38;100408.06;;;12.06;64.98
12949;BME280;6539;49.476;8.484;2023-04-07T07:19:08;100409.94;;;12.12;64.58
12949;BME280;6539;49.476;8.484;2023-04-07T07:21:36;100401.47;;;12.27;64.18
12949;BME280;6539;49.476;8.484;2023-04-07T07:24:04;100405.25;;;12.36;63.84
12949;BME280;6539;49.476;8.484;2023-04-07T07:26:32;100394.59;;;12.38;63.55
12949;BME280;6539;49.476;8.484;2023-04-07T07:28:58;100397.00;;;12.36;63.71
12949;BME280;6539;49.476;8.484;2023-04-07T07:31:24;100393.78;;;12.41;62.61
12949;BME280;6539;49.476;8.484;2023-04-07T07:33:52;100396.09;;;12.43;62.86
12949;BME280;6539;49.476;8.484;2023-04-07T07:36:17;100401.50;;;12.50;63.27
12949;BME280;6539;49.476;8.484;2023-04-07T07:38:48;100390.97;;;12.68;62.71
12949;BME280;6539;49.476;8.484;2023-04-07T07:41:19;100395.44;;;12.81;62.38
12949;BME280;6539;49.476;8.484;2023-04-07T07:43:45;100392.03;;;12.97;62.28
12949;BME280;6539;49.476;8.484;2023-04-07T07:46:13;100399.38;;;13.27;61.53
12949;BME280;6539;49.476;8.484;2023-04-07T07:48:39;100398.09;;;13.51;61.02
12949;BME280;6539;49.476;8.484;2023-04-07T07:51:11;100404.97;;;13.62;59.32
12949;BME280;6539;49.476;8.484;2023-04-07T07:53:39;100405.00;;;13.78;59.48
12949;BME280;6539;49.476;8.484;2023-04-07T07:56:07;100416.41;;;14.16;57.96
12949;BME280;6539;49.476;8.484;2023-04-07T07:58:35;100410.84;;;15.00;58.02
12949;BME280;6539;49.476;8.484;2023-04-07T08:01:01;100403.66;;;15.60;53.80
12949;BME280;6539;49.476;8.484;2023-04-07T08:03:27;100410.50;;;15.97;51.89
12949;BME280;6539;49.476;8.484;2023-04-07T08:05:55;100408.41;;;16.51;51.00
12949;BME280;6539;49.476;8.484;2023-04-07T08:08:23;100415.03;;;16.79;49.04
12949;BME280;6539;49.476;8.484;2023-04-07T08:10:51;100418.44;;;17.17;50.06
12949;BME280;6539;49.476;8.484;2023-04-07T08:13:19;100417.19;;;17.31;47.54
12949;BME280;6539;49.476;8.484;2023-04-07T08:15:47;100424.22;;;17.23;46.29
12949;BME280;6539;49.476;8.484;2023-04-07T08:18:18;100429.59;;;17.05;47.13
12949;BME280;6539;49.476;8.484;2023-04-07T08:20:43;100424.56;;;17.12;47.31
12949;BME280;6539;49.476;8.484;2023-04-07T08:23:14;100432.03;;;17.03;47.02
12949;BME280;6539;49.476;8.484;2023-04-07T08:25:42;100427.66;;;17.27;48.22
12949;BME280;6539;49.476;8.484;2023-04-07T08:28:08;100426.06;;;17.60;47.01
12949;BME280;6539;49.476;8.484;2023-04-07T08:30:33;100437.81;;;17.64;46.09
12949;BME280;6539;49.476;8.484;2023-04-07T08:32:59;100430.97;;;17.56;46.07
12949;BME280;6539;49.476;8.484;2023-04-07T08:35:30;100436.28;;;17.63;45.42
12949;BME280;6539;49.476;8.484;2023-04-07T08:37:58;100435.81;;;17.65;45.38
12949;BME280;6539;49.476;8.484;2023-04-07T08:40:23;100425.69;;;17.36;45.39
12949;BME280;6539;49.476;8.484;2023-04-07T08:42:52;100435.25;;;17.14;47.09
12949;BME280;6539;49.476;8.484;2023-04-07T08:45:18;100428.44;;;17.15;46.63
12949;BME280;6539;49.476;8.484;2023-04-07T08:47:46;100430.09;;;16.91;47.20
12949;BME280;6539;49.476;8.484;2023-04-07T08:50:16;100442.41;;;16.90;48.37
12949;BME280;6539;49.476;8.484;2023-04-07T08:52:55;100445.41;;;17.17;47.98
12949;BME280;6539;49.476;8.484;2023-04-07T08:55:22;100438.97;;;17.54;47.88
12949;BME280;6539;49.476;8.484;2023-04-07T08:57:51;100441.34;;;17.86;46.52
12949;BME280;6539;49.476;8.484;2023-04-07T09:00:17;100439.38;;;18.17;45.93
12949;BME280;6539;49.476;8.484;2023-04-07T09:02:44;100431.03;;;18.17;45.40
12949;BME280;6539;49.476;8.484;2023-04-07T09:05:11;100437.28;;;18.00;44.90
12949;BME280;6539;49.476;8.484;2023-04-07T09:07:40;100446.03;;;17.68;45.59
12949;BME280;6539;49.476;8.484;2023-04-07T09:10:12;100443.66;;;17.44;46.70
12949;BME280;6539;49.476;8.484;2023-04-07T09:12:43;100446.44;;;17.44;47.03
12949;BME280;6539;49.476;8.484;2023-04-07T09:15:11;100449.28;;;17.19;46.65
12949;BME280;6539;49.476;8.484;2023-04-07T09:17:37;100447.22;;;17.11;47.49
12949;BME280;6539;49.476;8.484;2023-04-07T09:20:06;100445.59;;;17.35;49.10
12949;BME280;6539;49.476;8.484;2023-04-07T09:22:41;100451.66;;;17.55;46.76
12949;BME280;6539;49.476;8.484;2023-04-07T09:25:17;100451.81;;;18.04;46.64
12949;BME280;6539;49.476;8.484;2023-04-07T09:28:01;100456.81;;;18.18;44.86
12949;BME280;6539;49.476;8.484;2023-04-07T09:30:32;100459.03;;;18.01;45.37
12949;BME280;6539;49.476;8.484;2023-04-07T09:33:02;100463.78;;;17.70;46.31
12949;BME280;6539;49.476;8.484;2023-04-07T09:35:50;100451.25;;;17.66;46.73
12949;BME280;6539;49.476;8.484;2023-04-07T09:38:16;100449.69;;;17.86;46.94
12949;BME280;6539;49.476;8.484;2023-04-07T09:40:42;100452.84;;;17.97;46.20
12949;BME280;6539;49.476;8.484;2023-04-07T09:43:16;100450.78;;;17.89;45.88
12949;BME280;6539;49.476;8.484;2023-04-07T09:45:44;100450.28;;;17.60;46.67
12949;BME280;6539;49.476;8.484;2023-04-07T09:48:23;100456.22;;;17.36;46.88
12949;BME280;6539;49.476;8.484;2023-04-07T09:50:49;100455.75;;;17.16;48.01
12949;BME280;6539;49.476;8.484;2023-04-07T09:53:18;100460.09;;;17.05;48.47
12949;BME280;6539;49.476;8.484;2023-04-07T09:55:45;100453.34;;;16.93;48.95
12949;BME280;6539;49.476;8.484;2023-04-07T09:58:16;100452.06;;;16.85;49.15
12949;BME280;6539;49.476;8.484;2023-04-07T10:00:45;100454.72;;;16.76;49.50
12949;BME280;6539;49.476;8.484;2023-04-07T10:03:14;100453.88;;;16.66;50.01
12949;BME280;6539;49.476;8.484;2023-04-07T10:05:44;100463.28;;;16.56;50.22
12949;BME280;6539;49.476;8.484;2023-04-07T10:08:13;100468.16;;;16.52;50.72
12949;BME280;6539;49.476;8.484;2023-04-07T10:10:43;100459.84;;;16.52;50.68
12949;BME280;6539;49.476;8.484;2023-04-07T10:13:11;100470.06;;;16.55;51.04
12949;BME280;6539;49.476;8.484;2023-04-07T10:15:39;100463.06;;;16.51;51.06
12949;BME280;6539;49.476;8.484;2023-04-07T10:18:06;100467.75;;;16.54;51.57
12949;BME280;6539;49.476;8.484;2023-04-07T10:20:39;100472.38;;;16.57;51.39
12949;BME280;6539;49.476;8.484;2023-04-07T10:25:57;100473.66;;;17.03;50.85
12949;BME280;6539;49.476;8.484;2023-04-07T10:28:26;100475.13;;;17.29;50.34
12949;BME280;6539;49.476;8.484;2023-04-07T10:30:56;100477.19;;;17.50;49.61
12949;BME280;6539;49.476;8.484;2023-04-07T10:33:49;100469.03;;;17.68;48.85
12949;BME280;6539;49.476;8.484;2023-04-07T10:36:20;100475.00;;;17.88;49.00
12949;BME280;6539;49.476;8.484;2023-04-07T10:41:37;100470.75;;;18.58;47.10
12949;BME280;6539;49.476;8.484;2023-04-07T10:44:09;100468.88;;;18.55;47.64
12949;BME280;6539;49.476;8.484;2023-04-07T10:49:15;100470.28;;;18.50;47.35
12949;BME280;6539;49.476;8.484;2023-04-07T10:51:44;100471.22;;;18.56;46.72
12949;BME280;6539;49.476;8.484;2023-04-07T10:54:34;100477.63;;;18.75;46.26
12949;BME280;6539;49.476;8.484;2023-04-07T10:59:37;100471.41;;;18.62;45.51
12949;BME280;6539;49.476;8.484;2023-04-07T11:04:44;100476.88;;;18.44;45.08
12949;BME280;6539;49.476;8.484;2023-04-07T11:07:16;100474.03;;;18.35;44.38
12949;BME280;6539;49.476;8.484;2023-04-07T11:09:53;100485.97;;;18.13;45.12
12949;BME280;6539;49.476;8.484;2023-04-07T11:12:32;100476.94;;;18.00;45.28
12949;BME280;6539;49.476;8.484;2023-04-07T11:15:16;100480.94;;;17.99;45.72
12949;BME280;6539;49.476;8.484;2023-04-07T11:20:50;100477.59;;;18.04;45.61
12949;BME280;6539;49.476;8.484;2023-04-07T11:23:20;100479.72;;;18.00;45.75
12949;BME280;6539;49.476;8.484;2023-04-07T11:25:51;100479.97;;;17.93;46.19
12949;BME280;6539;49.476;8.484;2023-04-07T11:28:19;100483.88;;;17.96;46.66
12949;BME280;6539;49.476;8.484;2023-04-07T11:30:51;100480.44;;;17.92;47.18
12949;BME280;6539;49.476;8.484;2023-04-07T11:33:25;100481.19;;;17.92;46.99
12949;BME280;6539;49.476;8.484;2023-04-07T11:35:55;100483.00;;;17.86;47.11
12949;BME280;6539;49.476;8.484;2023-04-07T11:38:29;100483.00;;;17.86;47.84
12949;BME280;6539;49.476;8.484;2023-04-07T11:41:13;100481.47;;;17.85;48.08
12949;BME280;6539;49.476;8.484;2023-04-07T11:43:42;100482.38;;;17.82;47.76
12949;BME280;6539;49.476;8.484;2023-04-07T11:46:13;100481.81;;;17.87;47.77
12949;BME280;6539;49.476;8.484;2023-04-07T11:48:43;100486.25;;;17.85;47.50
12949;BME280;6539;49.476;8.484;2023-04-07T11:51:18;100495.94;;;17.80;47.51
12949;BME280;6539;49.476;8.484;2023-04-07T11:53:55;100500.38;;;17.56;48.18
12949;BME280;6539;49.476;8.484;2023-04-07T11:56:23;100496.31;;;17.35;47.75
12949;BME280;6539;49.476;8.484;2023-04-07T11:58:53;100498.31;;;17.35;47.51
12949;BME280;6539;49.476;8.484;2023-04-07T12:01:22;100500.47;;;17.18;48.14
12949;BME280;6539;49.476;8.484;2023-04-07T12:04:02;100501.06;;;17.01;48.81
12949;BME280;6539;49.476;8.484;2023-04-07T12:06:35;100506.31;;;16.86;49.25
12949;BME280;6539;49.476;8.484;2023-04-07T12:09:07;100506.75;;;16.72;49.87
12949;BME280;6539;49.476;8.484;2023-04-07T12:11:35;100506.75;;;16.72;50.09
12949;BME280;6539;49.476;8.484;2023-04-07T12:14:04;100509.72;;;16.65;50.55
12949;BME280;6539;49.476;8.484;2023-04-07T12:16:37;100503.09;;;16.62;50.99
12949;BME280;6539;49.476;8.484;2023-04-07T12:19:03;100503.53;;;16.61;51.35
12949;BME280;6539;49.476;8.484;2023-04-07T12:21:31;100505.41;;;16.51;51.97
12949;BME280;6539;49.476;8.484;2023-04-07T12:24:02;100506.09;;;16.55;51.47
12949;BME280;6539;49.476;8.484;2023-04-07T12:26:28;100511.16;;;16.44;52.41
12949;BME280;6539;49.476;8.484;2023-04-07T12:28:54;100522.00;;;16.39;52.94
12949;BME280;6539;49.476;8.484;2023-04-07T12:31:20;100519.00;;;16.33;53.26
12949;BME280;6539;49.476;8.484;2023-04-07T12:33:46;100521.09;;;16.29;54.16
12949;BME280;6539;49.476;8.484;2023-04-07T12:36:12;100525.78;;;16.32;54.11
12949;BME280;6539;49.476;8.484;2023-04-07T12:38:37;100523.09;;;16.29;54.54
12949;BME280;6539;49.476;8.484;2023-04-07T12:41:03;100516.75;;;16.28;52.43
12949;BME280;6539;49.476;8.484;2023-04-07T12:43:31;100519.91;;;16.30;52.72
12949;BME280;6539;49.476;8.484;2023-04-07T12:45:59;100528.22;;;16.30;52.94
12949;BME280;6539;49.476;8.484;2023-04-07T12:48:25;100528.22;;;16.30;52.86
12949;BME280;6539;49.476;8.484;2023-04-07T12:50:56;100523.09;;;16.41;52.73
12949;BME280;6539;49.476;8.484;2023-04-07T12:53:21;100518.38;;;16.54;52.79
12949;BME280;6539;49.476;8.484;2023-04-07T12:55:47;100524.03;;;16.76;52.54
12949;BME280;6539;49.476;8.484;2023-04-07T12:58:16;100518.72;;;16.94;52.13
12949;BME280;6539;49.476;8.484;2023-04-07T13:00:44;100517.34;;;17.11;52.09
12949;BME280;6539;49.476;8.484;2023-04-07T13:03:13;100523.94;;;17.39;51.39
12949;BME280;6539;49.476;8.484;2023-04-07T13:05:39;100525.84;;;17.42;51.27
12949;BME280;6539;49.476;8.484;2023-04-07T13:08:07;100522.13;;;17.45;50.55
12949;BME280;6539;49.476;8.484;2023-04-07T13:10:33;100525.06;;;17.41;49.83
12949;BME280;6539;49.476;8.484;2023-04-07T13:12:59;100530.84;;;17.34;49.78
12949;BME280;6539;49.476;8.484;2023-04-07T13:15:27;100527.53;;;17.27;49.78
12949;BME280;6539;49.476;8.484;2023-04-07T13:17:53;100531.09;;;17.15;50.33
12949;BME280;6539;49.476;8.484;2023-04-07T13:20:20;100533.56;;;17.00;50.50
12949;BME280;6539;49.476;8.484;2023-04-07T13:22:50;100529.47;;;17.05;50.62
12949;BME280;6539;49.476;8.484;2023-04-07T13:25:19;100539.34;;;16.93;50.89
12949;BME280;6539;49.476;8.484;2023-04-07T13:27:47;100534.13;;;16.83;50.60